Time;durP1;ratioP1;P1;durP2;ratioP2;P2;SDS_P1;SDS_P2;PMS_P1;PMS_P2;Temp;Humidity;BMP_temperature;BMP_pressure;BME280_temperature;BME280_humidity;BME280_pressure;Samples;Min_cycle;Max_cycle;Signal;HPM_P1;HPM_P2
2021/11/08 00:00:49;;;;;;;1.50;0.70;;;;;;;5.15;88.70;100000.34;5085580;28;20025;-69
2021/11/08 00:03:18;;;;;;;0.95;0.73;;;;;;;5.18;88.58;100008.09;5085777;28;20083;-68
2021/11/08 00:05:44;;;;;;;0.70;0.60;;;;;;;5.14;88.67;100002.91;5085660;28;20092;-67
2021/11/08 00:08:12;;;;;;;1.00;0.75;;;;;;;5.16;88.88;100029.53;5085559;28;20024;-68
2021/11/08 00:10:38;;;;;;;3.42;0.80;;;;;;;5.12;88.70;100020.91;5085721;28;20051;-68
2021/11/08 00:13:07;;;;;;;1.20;0.93;;;;;;;5.17;88.89;100023.53;5085797;28;20028;-68
2021/11/08 00:18:12;;;;;;;1.67;0.73;;;;;;;5.15;88.86;100023.50;5085974;28;20028;-67
2021/11/08 00:20:43;;;;;;;;;;;;;;;5.23;88.71;100039.00;5086020;28;20070;-67
2021/11/08 00:23:10;;;;;;;0.50;0.50;;;;;;;5.23;88.79;100035.56;5085068;28;19954;-68
2021/11/08 00:25:38;;;;;;;1.75;0.82;;;;;;;5.26;88.60;100043.31;5084513;28;20040;-68
2021/11/08 00:28:05;;;;;;;1.02;0.68;;;;;;;5.20;88.87;100046.72;5084600;28;20048;-67
2021/11/08 00:30:32;;;;;;;1.00;0.80;;;;;;;5.26;88.68;100048.47;5084855;28;20027;-69
2021/11/08 00:32:58;;;;;;;0.73;0.50;;;;;;;5.24;88.80;100048.44;5085239;28;20065;-68
2021/11/08 00:35:24;;;;;;;1.48;0.80;;;;;;;5.23;88.72;100053.59;5084772;28;20484;-68
2021/11/08 00:37:49;;;;;;;1.42;0.98;;;;;;;5.17;88.83;100059.56;5085287;28;20035;-69
2021/11/08 00:40:15;;;;;;;5.18;0.80;;;;;;;5.24;88.62;100061.31;5100735;28;20040;-69
2021/11/08 00:42:40;;;;;;;1.65;0.88;;;;;;;5.23;88.50;100066.44;5085358;28;20025;-68
2021/11/08 00:45:06;;;;;;;1.00;0.77;;;;;;;5.21;88.59;100062.16;5084715;28;20020;-68
2021/11/08 00:47:34;;;;;;;1.98;0.90;;;;;;;5.16;88.51;100071.56;5085115;28;20032;-69
2021/11/08 00:50:00;;;;;;;1.38;0.80;;;;;;;5.19;88.07;100079.28;5085013;28;20035;-68
2021/11/08 00:52:25;;;;;;;1.80;0.80;;;;;;;5.18;88.20;100079.28;5084982;28;20031;-69
2021/11/08 00:54:51;;;;;;;2.20;1.05;;;;;;;5.18;88.26;100097.28;5084793;28;20020;-68
2021/11/08 00:57:20;;;;;;;2.50;1.50;;;;;;;5.17;88.35;100093.00;5084720;28;20016;-68
2021/11/08 00:59:46;;;;;;;1.30;0.65;;;;;;;5.18;88.34;100097.28;5084668;28;20024;-68
2021/11/08 01:02:13;;;;;;;3.30;1.08;;;;;;;5.15;88.22;100100.72;5084562;28;20095;-68
2021/11/08 01:04:38;;;;;;;2.47;0.80;;;;;;;5.13;88.01;100104.97;5084614;28;20025;-68
2021/11/08 01:07:04;;;;;;;0.70;0.70;;;;;;;5.14;88.24;100108.44;5084421;28;20032;-68
2021/11/08 01:09:30;;;;;;;2.47;0.70;;;;;;;5.11;88.00;100108.41;5084671;28;20047;-68
2021/11/08 01:11:57;;;;;;;1.65;1.10;;;;;;;5.10;88.15;100109.25;5084430;28;20016;-68
2021/11/08 01:14:24;;;;;;;4.05;0.73;;;;;;;5.04;87.83;100110.91;5084619;28;20021;-68
2021/11/08 01:16:56;;;;;;;1.25;0.70;;;;;;;5.09;88.20;100123.81;5084306;28;20031;-69
2021/11/08 01:19:21;;;;;;;;;;;;;;;5.13;88.14;100135.88;5084840;28;20025;-68
2021/11/08 01:21:47;;;;;;;5.43;0.93;;;;;;;5.12;88.20;100138.41;5084143;28;19954;-68
2021/11/08 01:24:13;;;;;;;3.53;1.25;;;;;;;5.13;88.39;100142.75;5083060;28;20446;-68
2021/11/08 01:26:38;;;;;;;1.52;1.10;;;;;;;5.16;88.33;100138.47;5084167;28;20028;-68
2021/11/08 01:29:05;;;;;;;2.35;0.95;;;;;;;5.18;88.50;100144.50;5083990;28;20028;-69
2021/11/08 01:31:31;;;;;;;2.78;1.20;;;;;;;5.21;87.94;100154.81;5084005;28;20108;-68
2021/11/08 01:33:57;;;;;;;2.03;0.90;;;;;;;5.21;88.00;100153.94;5084143;28;20132;-69
2021/11/08 01:36:25;;;;;;;2.05;0.93;;;;;;;5.16;88.02;100155.63;5084151;28;20035;-69
2021/11/08 01:38:54;;;;;;;4.57;1.15;;;;;;;5.21;87.67;100164.25;5084067;28;20040;-68
2021/11/08 01:41:27;;;;;;;3.38;0.90;;;;;;;5.13;87.65;100166.75;5084115;28;20016;-69
2021/11/08 01:43:53;;;;;;;4.90;1.00;;;;;;;5.12;87.59;100180.47;5084217;28;20046;-67
2021/11/08 01:46:21;;;;;;;3.53;1.27;;;;;;;5.07;87.85;100171.81;5082135;28;20417;-68
2021/11/08 01:48:48;;;;;;;5.63;1.20;;;;;;;5.10;88.17;100178.75;5083810;28;20576;-68
2021/11/08 01:51:14;;;;;;;2.42;1.20;;;;;;;5.11;88.19;100173.59;5083124;28;20055;-68
2021/11/08 01:53:40;;;;;;;3.65;1.30;;;;;;;5.10;88.15;100177.00;5082665;28;20021;-68
2021/11/08 01:56:05;;;;;;;3.75;1.02;;;;;;;5.08;88.17;100178.69;5081952;28;20020;-69
2021/11/08 01:58:32;;;;;;;1.95;0.90;;;;;;;5.11;88.08;100186.47;5083201;28;20024;-67
2021/11/08 02:00:59;;;;;;;4.50;1.33;;;;;;;5.10;88.27;100197.59;5083489;28;20024;-69
2021/11/08 02:03:25;;;;;;;7.03;0.95;;;;;;;5.04;87.95;100190.69;5083472;28;20056;-68
2021/11/08 02:05:51;;;;;;;9.07;2.03;;;;;;;5.02;87.81;100210.38;5083473;28;20025;-68
2021/11/08 02:08:18;;;;;;;4.43;1.40;;;;;;;5.00;87.83;100206.06;5098981;28;20032;-68
2021/11/08 02:10:44;;;;;;;5.57;1.88;;;;;;;4.95;87.89;100206.88;5083536;28;20051;-68
2021/11/08 02:13:09;;;;;;;4.60;1.02;;;;;;;4.96;87.72;100212.88;5083516;28;20052;-68
2021/11/08 02:15:36;;;;;;;4.90;1.40;;;;;;;4.94;87.82;100209.41;5098764;28;20075;-67
2021/11/08 02:18:04;;;;;;;3.95;1.58;;;;;;;4.95;87.85;100216.31;5082134;28;20025;-68
2021/11/08 02:20:31;;;;;;;5.93;1.20;;;;;;;4.92;87.80;100214.53;5083551;28;20052;-68
2021/11/08 02:23:00;;;;;;;2.78;1.13;;;;;;;4.94;87.70;100227.44;5083300;28;20047;-67
2021/11/08 02:25:28;;;;;;;1.20;0.80;;;;;;;4.91;87.96;100225.69;5083053;28;20024;-68
2021/11/08 02:27:54;;;;;;;4.70;1.40;;;;;;;4.88;87.61;100224.78;5082774;28;20031;-68
2021/11/08 02:30:22;;;;;;;4.07;1.17;;;;;;;4.90;87.33;100238.53;5098441;28;20056;-68
2021/11/08 02:32:49;;;;;;;3.70;1.10;;;;;;;4.83;87.02;100227.31;5083266;28;20472;-68
2021/11/08 02:35:16;;;;;;;2.30;1.10;;;;;;;4.87;87.34;100252.25;5083006;28;20063;-68
2021/11/08 02:37:42;;;;;;;5.68;1.42;;;;;;;4.87;87.07;100256.50;5083076;28;20084;-68
2021/11/08 02:40:18;;;;;;;3.22;2.58;;;;;;;4.87;87.06;100272.81;5083395;28;20198;-68
2021/11/08 02:42:47;;;;;;;2.72;1.20;;;;;;;4.81;87.05;100257.28;5083212;28;20465;-67
2021/11/08 02:45:12;;;;;;;4.65;1.20;;;;;;;4.82;86.64;100251.31;5082924;28;20025;-67
2021/11/08 02:47:43;;;;;;;6.32;1.30;;;;;;;4.86;86.50;100255.63;5083160;28;20045;-68
2021/11/08 02:50:09;;;;;;;7.25;1.20;;;;;;;4.90;85.73;100253.97;5082999;28;20032;-67
2021/11/08 02:52:34;;;;;;;2.30;0.93;;;;;;;4.79;86.02;100264.97;5083149;28;20416;-68
2021/11/08 02:55:01;;;;;;;2.72;0.82;;;;;;;4.74;86.10;100260.63;5083237;28;20025;-68
2021/11/08 02:57:27;;;;;;;3.25;1.15;;;;;;;4.75;86.09;100278.66;5083038;28;20021;-66
2021/11/08 02:59:53;;;;;;;1.48;1.00;;;;;;;4.75;86.15;100265.78;5083079;28;20021;-68
2021/11/08 03:02:20;;;;;;;3.85;0.80;;;;;;;4.69;86.19;100269.16;5082777;28;20026;-67
2021/11/08 03:04:51;;;;;;;7.90;1.60;;;;;;;4.76;86.01;100279.53;5082923;28;20029;-67
2021/11/08 03:07:17;;;;;;;2.90;1.08;;;;;;;4.81;85.44;100293.28;5083722;28;20024;-67
2021/11/08 03:09:56;;;;;;;1.48;0.85;;;;;;;4.79;85.37;100288.13;5086863;28;20062;-67
2021/11/08 03:12:27;;;;;;;4.22;1.23;;;;;;;4.73;85.90;100295.75;5087095;28;20032;-67
2021/11/08 03:17:29;;;;;;;2.78;0.98;;;;;;;4.73;85.66;100295.75;5086617;28;20024;-67
2021/11/08 03:19:54;;;;;;;2.83;0.82;;;;;;;4.77;85.02;100297.56;5086720;28;20036;-67
2021/11/08 03:22:25;;;;;;;1.23;0.75;;;;;;;4.71;85.08;100298.31;5086678;28;20024;-66
2021/11/08 03:29:52;;;;;;;2.28;1.00;;;;;;;4.73;84.96;100306.03;5085923;28;20024;-68
2021/11/08 03:32:20;;;;;;;3.42;1.13;;;;;;;4.76;84.82;100312.97;5086264;28;20020;-67
2021/11/08 03:34:57;;;;;;;1.77;0.73;;;;;;;4.73;85.03;100310.34;5085987;28;20079;-67
2021/11/08 03:37:24;;;;;;;1.85;0.65;;;;;;;4.76;84.44;100310.38;5086350;28;20084;-67
2021/11/08 03:39:50;;;;;;;0.80;0.63;;;;;;;4.70;84.55;100306.88;5086345;28;20028;-66
2021/11/08 03:42:16;;;;;;;2.78;0.80;;;;;;;4.62;84.77;100310.19;5086548;28;20055;-68
2021/11/08 03:44:42;;;;;;;3.42;0.82;;;;;;;4.63;84.71;100330.78;5086417;28;20527;-68
2021/11/08 03:47:07;;;;;;;2.90;1.17;;;;;;;4.61;84.59;100329.91;5085987;28;20029;-67
2021/11/08 03:49:33;;;;;;;1.90;0.73;;;;;;;4.59;84.21;100339.28;5086254;28;20027;-67
2021/11/08 03:52:00;;;;;;;2.08;0.80;;;;;;;4.58;84.33;100338.41;5086025;28;20044;-68
2021/11/08 03:54:26;;;;;;;0.82;0.60;;;;;;;4.48;84.78;100341.69;5086195;28;20031;-68
2021/11/08 03:56:52;;;;;;;4.15;1.35;;;;;;;4.61;84.07;100352.16;5085949;28;20021;-69
2021/11/08 03:59:18;;;;;;;0.88;0.68;;;;;;;4.54;84.53;100361.47;5085812;28;20101;-68
2021/11/08 04:01:43;;;;;;;1.40;0.80;;;;;;;4.36;84.16;100347.50;5085652;28;20297;-68
2021/11/08 04:04:08;;;;;;;2.80;1.02;;;;;;;4.47;84.39;100373.41;5085925;28;20016;-68
2021/11/08 04:06:35;;;;;;;2.45;1.10;;;;;;;4.47;84.61;100381.94;5085868;28;20115;-68
2021/11/08 04:09:02;;;;;;;4.13;1.02;;;;;;;4.47;84.69;100379.38;5085860;28;20020;-68
2021/11/08 04:11:29;;;;;;;3.70;1.08;;;;;;;4.50;84.74;100395.72;5085858;28;20016;-68
2021/11/08 04:13:57;;;;;;;4.00;1.38;;;;;;;4.50;84.73;100406.00;5085682;28;20024;-67
2021/11/08 04:16:24;;;;;;;3.17;1.27;;;;;;;4.46;84.17;100403.38;5085265;28;20096;-67
2021/11/08 04:18:52;;;;;;;1.20;0.70;;;;;;;4.50;83.78;100406.88;5084687;28;20052;-67
2021/11/08 04:21:19;;;;;;;2.63;1.48;;;;;;;4.43;84.04;100400.75;5084041;28;20024;-67
2021/11/08 04:23:44;;;;;;;1.77;0.90;;;;;;;4.40;84.40;100404.97;5084120;28;20516;-68
2021/11/08 04:26:14;;;;;;;3.70;1.20;;;;;;;4.30;84.71;100398.78;5085331;28;20027;-68
2021/11/08 04:28:39;;;;;;;2.60;0.88;;;;;;;4.40;84.25;100413.56;5085537;28;20023;-68
2021/11/08 04:31:05;;;;;;;1.33;0.80;;;;;;;4.37;84.14;100423.78;5085069;28;20252;-67
2021/11/08 04:33:35;;;;;;;1.77;0.93;;;;;;;4.20;84.19;100406.34;5084993;28;20906;-68
2021/11/08 04:38:49;;;;;;;1.40;1.00;;;;;;;4.37;83.70;100422.91;5085458;28;20025;-67
2021/11/08 04:44:06;;;;;;;1.05;0.80;;;;;;;4.31;83.64;100454.53;5085223;28;20029;-67
2021/11/08 04:46:54;;;;;;;2.03;0.90;;;;;;;4.31;83.28;100455.38;5084824;28;20109;-67
2021/11/08 04:49:27;;;;;;;1.15;0.90;;;;;;;4.25;83.59;100459.56;5083547;28;20028;-68
2021/11/08 05:31:40;;;;;;;1.30;0.80;;;;;;;4.16;82.49;100534.75;5082688;28;20028;-67
2021/11/08 05:34:05;;;;;;;1.25;0.80;;;;;;;3.93;82.89;100500.03;5083976;28;20054;-69
2021/11/08 05:36:30;;;;;;;3.53;1.25;;;;;;;4.22;82.50;100537.44;5083709;28;20044;-68
2021/11/08 05:38:56;;;;;;;4.10;1.08;;;;;;;4.19;82.72;100538.25;5082426;28;20040;-69
2021/11/08 05:41:21;;;;;;;1.02;0.70;;;;;;;4.09;83.05;100533.75;5083899;28;20028;-69
2021/11/08 05:43:46;;;;;;;2.13;1.15;;;;;;;4.11;83.23;100546.63;5083881;28;20031;-69
2021/11/08 05:46:12;;;;;;;2.10;0.90;;;;;;;4.12;83.57;100556.94;5083704;28;20270;-68
2021/11/08 05:48:38;;;;;;;1.15;0.95;;;;;;;4.04;83.52;100555.94;5083777;28;20062;-69
2021/11/08 05:51:03;;;;;;;1.92;1.25;;;;;;;4.08;83.42;100562.88;5099216;28;20063;-70
2021/11/08 05:53:29;;;;;;;1.55;0.98;;;;;;;4.10;83.41;100576.63;5082509;28;20351;-69
2021/11/08 05:59:00;;;;;;;3.42;0.90;;;;;;;4.01;83.58;100566.16;5083907;28;20017;-70
2021/11/08 06:50:28;;;;;;;1.77;1.10;;;;;;;3.65;82.61;100630.44;5083799;28;20025;-70
2021/11/08 06:53:00;;;;;;;1.08;0.80;;;;;;;3.51;82.46;100622.41;5083349;28;20245;-70
2021/11/08 06:55:26;;;;;;;1.27;0.88;;;;;;;3.66;82.10;100647.56;5083460;28;20115;-70
2021/11/08 06:58:00;;;;;;;1.42;0.90;;;;;;;3.70;82.21;100645.94;5083407;28;20016;-70
2021/11/08 07:00:25;;;;;;;0.73;0.70;;;;;;;3.65;82.56;100661.25;5082193;28;20017;-69
2021/11/08 07:02:50;;;;;;;1.20;1.00;;;;;;;3.67;82.34;100661.28;5083310;28;20080;-70
2021/11/08 07:05:16;;;;;;;2.28;0.98;;;;;;;3.78;80.87;100671.81;5083654;28;20085;-70
2021/11/08 07:07:42;;;;;;;2.05;1.00;;;;;;;3.66;81.25;100670.69;5083176;28;20013;-70
2021/11/08 07:10:07;;;;;;;1.25;0.80;;;;;;;3.73;79.86;100674.25;5083732;28;20099;-70
2021/11/08 07:12:33;;;;;;;0.50;0.50;;;;;;;3.59;80.73;100685.06;5082190;28;20550;-70
2021/11/08 07:14:59;;;;;;;1.65;0.82;;;;;;;3.57;80.14;100693.56;5082197;28;20024;-68
2021/11/08 07:17:24;;;;;;;1.40;0.80;;;;;;;3.46;80.03;100675.31;5082914;28;20024;-69
2021/11/08 07:19:49;;;;;;;1.25;0.60;;;;;;;3.44;80.55;100685.56;5083158;28;20445;-69
2021/11/08 07:22:15;;;;;;;0.77;0.60;;;;;;;3.45;80.48;100705.25;5083107;28;20111;-69
2021/11/08 07:24:40;;;;;;;0.68;0.60;;;;;;;3.51;81.02;100725.09;5083119;28;20052;-70
2021/11/08 07:27:06;;;;;;;1.50;0.63;;;;;;;3.59;80.76;100722.72;5081799;28;20020;-69
2021/11/08 07:29:36;;;;;;;1.60;0.70;;;;;;;3.49;80.96;100715.59;5097429;28;20028;-71
2021/11/08 07:32:01;;;;;;;4.03;1.10;;;;;;;3.47;80.46;100713.88;5082573;28;20036;-70
2021/11/08 07:34:27;;;;;;;1.42;0.73;;;;;;;3.53;80.67;100745.66;5082763;28;20044;-70
2021/11/08 07:36:53;;;;;;;0.70;0.60;;;;;;;3.39;80.66;100730.75;5082923;28;20028;-69
2021/11/08 07:39:18;;;;;;;0.80;0.65;;;;;;;3.43;80.54;100748.00;5083192;28;20081;-68
2021/11/08 07:41:44;;;;;;;0.98;0.88;;;;;;;3.47;80.23;100747.25;5082755;28;20016;-70
2021/11/08 07:44:10;;;;;;;0.60;0.60;;;;;;;3.52;80.58;100761.88;5083097;28;20028;-70
2021/11/08 07:46:35;;;;;;;1.17;1.00;;;;;;;3.47;80.78;100754.94;5081205;28;20078;-68
2021/11/08 07:49:00;;;;;;;0.68;0.68;;;;;;;3.51;79.37;100748.19;5082954;28;20024;-69
2021/11/08 07:51:26;;;;;;;1.52;0.73;;;;;;;3.52;80.19;100784.97;5082866;28;20020;-70
2021/11/08 07:53:51;;;;;;;0.65;0.60;;;;;;;3.26;79.87;100755.22;5098619;28;20025;-71
2021/11/08 07:56:17;;;;;;;0.93;0.80;;;;;;;3.30;79.68;100772.47;5086222;28;20031;-70
2021/11/08 07:58:43;;;;;;;0.98;0.70;;;;;;;3.41;80.27;100795.84;5086330;28;20016;-70
2021/11/08 08:01:09;;;;;;;0.80;0.75;;;;;;;3.42;80.43;100801.84;5101417;28;20111;-70
2021/11/08 08:03:36;;;;;;;1.20;0.82;;;;;;;3.42;80.51;100800.16;5086173;28;20025;-69
2021/11/08 08:06:03;;;;;;;2.00;0.70;;;;;;;3.42;80.51;100797.56;5086096;28;20051;-69
2021/11/08 08:08:29;;;;;;;1.83;1.00;;;;;;;3.39;80.77;100805.19;5101737;28;20028;-70
2021/11/08 08:10:55;;;;;;;3.17;1.05;;;;;;;3.39;80.98;100820.59;5086093;28;20028;-70
2021/11/08 08:13:25;;;;;;;0.50;0.50;;;;;;;3.46;80.58;100825.09;5084583;28;20491;-71
2021/11/08 08:15:54;;;;;;;2.65;1.23;;;;;;;3.47;80.41;100831.94;5085630;28;20029;-70
2021/11/08 08:18:20;;;;;;;0.60;0.60;;;;;;;3.45;80.66;100833.59;5086163;28;20027;-70
2021/11/08 08:20:46;;;;;;;2.30;0.60;;;;;;;3.43;80.82;100837.84;5084506;28;20024;-70
2021/11/08 08:23:11;;;;;;;1.00;0.85;;;;;;;3.46;80.55;100837.91;5084579;28;20023;-70
2021/11/08 08:25:37;;;;;;;1.00;0.90;;;;;;;3.45;80.93;100843.88;5085801;28;20024;-70
2021/11/08 08:28:02;;;;;;;0.85;0.60;;;;;;;3.51;80.75;100848.31;5085509;28;20027;-69
2021/11/08 08:30:28;;;;;;;0.70;0.70;;;;;;;3.57;80.36;100847.59;5085660;28;20110;-70
2021/11/08 08:32:55;;;;;;;0.80;0.63;;;;;;;3.62;80.34;100853.75;5085635;28;20035;-70
2021/11/08 08:35:21;;;;;;;0.60;0.60;;;;;;;3.70;79.36;100859.09;5085611;28;20048;-70
2021/11/08 08:37:47;;;;;;;1.60;0.85;;;;;;;3.71;79.67;100851.44;5085557;28;20044;-71
2021/11/08 08:40:14;;;;;;;0.70;0.70;;;;;;;3.88;77.66;100871.56;5085741;28;20032;-70
2021/11/08 08:42:40;;;;;;;0.63;0.60;;;;;;;3.52;77.05;100831.19;5085674;28;20197;-69
2021/11/08 08:45:07;;;;;;;0.95;0.77;;;;;;;3.58;77.13;100836.50;5085846;28;20017;-71
2021/11/08 08:47:32;;;;;;;1.00;0.70;;;;;;;3.62;77.11;100861.44;5085069;28;20024;-71
2021/11/08 08:49:58;;;;;;;1.70;0.68;;;;;;;3.68;77.03;100856.47;5085411;28;20032;-71
2021/11/08 08:52:23;;;;;;;0.77;0.70;;;;;;;3.65;76.12;100858.97;5085374;28;20048;-70
2021/11/08 08:54:49;;;;;;;0.75;0.75;;;;;;;3.67;76.34;100874.41;5085437;28;20382;-71
2021/11/08 08:57:15;;;;;;;0.85;0.73;;;;;;;3.58;77.30;100877.56;5083934;28;20036;-70
2021/11/08 08:59:41;;;;;;;1.02;1.00;;;;;;;3.71;76.99;100876.22;5085403;28;20020;-71
2021/11/08 09:02:08;;;;;;;0.52;0.52;;;;;;;3.94;77.61;100874.31;5085043;28;20033;-70
2021/11/08 09:04:33;;;;;;;0.80;0.60;;;;;;;4.44;76.44;100865.25;5085382;28;20047;-71
2021/11/08 09:06:59;;;;;;;0.63;0.50;;;;;;;4.74;74.92;100860.81;5084967;28;20024;-70
2021/11/08 09:09:24;;;;;;;0.50;0.50;;;;;;;4.71;74.79;100866.72;5085174;28;20032;-72
2021/11/08 09:11:50;;;;;;;0.45;0.40;;;;;;;4.81;75.34;100864.38;5085267;28;20028;-71
2021/11/08 09:14:16;;;;;;;2.03;0.68;;;;;;;4.98;73.88;100840.72;5085020;28;20396;-70
2021/11/08 09:16:41;;;;;;;0.50;0.50;;;;;;;5.61;74.12;100868.63;5084826;28;20028;-70
2021/11/08 09:19:07;;;;;;;0.50;0.50;;;;;;;6.22;74.59;100864.56;5085125;28;20020;-70
2021/11/08 09:21:35;;;;;;;0.65;0.57;;;;;;;6.86;73.47;100876.75;5084828;28;20437;-70
2021/11/08 09:24:02;;;;;;;0.40;0.30;;;;;;;7.28;67.98;100846.34;5085175;28;20024;-70
2021/11/08 09:26:30;;;;;;;0.68;0.50;;;;;;;7.52;65.57;100877.63;5084792;28;20024;-70
2021/11/08 09:28:57;;;;;;;1.10;0.63;;;;;;;7.43;67.07;100879.22;5084730;28;20020;-70
2021/11/08 09:31:23;;;;;;;0.68;0.55;;;;;;;7.75;66.87;100880.44;5084468;28;20351;-70
2021/11/08 09:33:50;;;;;;;2.63;0.50;;;;;;;8.04;67.03;100879.00;5084536;28;20049;-70
2021/11/08 09:36:16;;;;;;;0.88;0.40;;;;;;;8.17;65.49;100886.06;5084449;28;20032;-70
2021/11/08 09:38:58;;;;;;;0.40;0.40;;;;;;;8.14;64.88;100870.50;5084524;28;20021;-70
2021/11/08 09:41:36;;;;;;;2.08;1.05;;;;;;;8.75;60.96;100873.59;5084484;28;20529;-70
2021/11/08 09:44:04;;;;;;;1.15;0.77;;;;;;;8.59;62.00;100877.81;5084695;28;20042;-70
2021/11/08 09:46:31;;;;;;;2.78;0.40;;;;;;;9.04;63.69;100878.06;5084079;28;20052;-70
2021/11/08 09:49:03;;;;;;;2.17;0.68;;;;;;;9.56;62.40;100883.50;5084350;28;20024;-69
2021/11/08 09:51:32;;;;;;;0.60;0.40;;;;;;;9.81;57.71;100890.50;5084249;28;20098;-70
2021/11/08 09:53:58;;;;;;;1.15;0.40;;;;;;;9.72;58.73;100886.13;5084256;28;20028;-69
2021/11/08 09:56:23;;;;;;;0.45;0.40;;;;;;;10.26;58.40;100898.31;5084011;28;20050;-69
2021/11/08 09:58:50;;;;;;;0.50;0.50;;;;;;;10.50;56.69;100899.22;5082830;28;20023;-70
2021/11/08 10:01:19;;;;;;;0.50;0.40;;;;;;;10.54;54.18;100882.81;5083824;28;20445;-70
2021/11/08 10:03:46;;;;;;;0.40;0.40;;;;;;;10.34;52.93;100908.72;5084057;28;20040;-70
2021/11/08 10:06:12;;;;;;;0.50;0.50;;;;;;;9.83;53.68;100910.38;5083918;28;20029;-70
2021/11/08 10:08:39;;;;;;;0.70;0.60;;;;;;;9.65;53.96;100906.84;5083855;28;20024;-70
2021/11/08 10:11:08;;;;;;;0.68;0.47;;;;;;;9.50;55.46;100901.63;5084082;28;20039;-71
2021/11/08 10:13:36;;;;;;;0.80;0.47;;;;;;;9.37;57.83;100926.59;5084156;28;20107;-71
2021/11/08 10:16:12;;;;;;;1.67;0.57;;;;;;;9.46;57.52;100925.78;5083800;28;20115;-70
2021/11/08 10:18:39;;;;;;;0.52;0.52;;;;;;;9.57;58.93;100934.47;5083490;28;20381;-71
2021/11/08 10:21:11;;;;;;;0.50;0.50;;;;;;;9.92;58.54;100941.50;5084098;28;20017;-70
2021/11/08 10:23:49;;;;;;;0.40;0.40;;;;;;;10.34;53.46;100927.75;5084042;28;20031;-70
2021/11/08 10:26:18;;;;;;;0.63;0.63;;;;;;;9.86;54.76;100931.13;5083980;28;20137;-70
2021/11/08 10:28:49;;;;;;;0.80;0.50;;;;;;;9.71;55.86;100939.72;5083863;28;20043;-70
2021/11/08 10:31:16;;;;;;;1.80;0.70;;;;;;;9.46;55.50;100929.25;5083847;28;20020;-71
2021/11/08 10:33:43;;;;;;;0.50;0.50;;;;;;;9.49;55.40;100955.16;5083775;28;20057;-71
2021/11/08 10:36:17;;;;;;;1.42;1.33;;;;;;;9.35;56.26;100960.28;5083718;28;20046;-71
2021/11/08 10:38:48;;;;;;;0.50;0.50;;;;;;;9.35;56.72;100959.41;5083788;28;20031;-71
2021/11/08 10:41:15;;;;;;;0.50;0.50;;;;;;;9.27;57.30;100954.19;5083529;28;20028;-71
2021/11/08 10:43:54;;;;;;;0.50;0.50;;;;;;;9.42;56.40;100964.63;5083382;28;20025;-69
2021/11/08 10:46:23;;;;;;;0.50;0.50;;;;;;;9.41;56.79;100962.91;5081826;28;20037;-70
2021/11/08 10:48:53;;;;;;;1.77;0.52;;;;;;;9.62;57.99;100961.28;5083313;28;20080;-70
2021/11/08 10:51:26;;;;;;;0.68;0.60;;;;;;;9.88;56.53;100970.91;5083457;28;20020;-70
2021/11/08 10:53:58;;;;;;;0.80;0.60;;;;;;;10.04;56.80;100970.94;5083459;28;20051;-70
2021/11/08 10:56:33;;;;;;;0.50;0.50;;;;;;;10.32;56.38;100968.41;5083370;28;20055;-70
2021/11/08 10:59:01;;;;;;;3.10;0.80;;;;;;;10.53;56.62;100977.13;5098828;28;20055;-70
2021/11/08 11:01:30;;;;;;;0.40;0.40;;;;;;;10.77;55.79;100973.66;5082999;28;20094;-70
2021/11/08 11:03:58;;;;;;;0.50;0.50;;;;;;;10.73;54.57;100984.06;5098786;28;20346;-69
2021/11/08 11:06:41;;;;;;;0.50;0.50;;;;;;;10.51;55.02;100968.47;5083064;28;20523;-70
2021/11/08 11:09:34;;;;;;;0.70;0.60;;;;;;;10.81;55.12;100999.66;5083080;28;20028;-71
2021/11/08 11:12:12;;;;;;;0.32;0.32;;;;;;;10.60;55.00;100991.84;5081430;28;20036;-70
2021/11/08 11:14:57;;;;;;;1.15;0.60;;;;;;;9.40;56.09;101010.44;5083464;28;20020;-70
2021/11/08 11:17:28;;;;;;;1.80;0.70;;;;;;;7.96;59.11;101012.50;5083061;28;20561;-71
2021/11/08 11:20:13;;;;;;;0.80;0.70;;;;;;;6.92;62.09;101010.19;5083334;28;20028;-72
2021/11/08 11:22:45;;;;;;;3.60;1.02;;;;;;;6.25;64.78;101014.16;5098560;28;20032;-70
2021/11/08 11:25:13;;;;;;;1.80;0.77;;;;;;;5.81;66.28;101013.28;5083221;28;20028;-70
2021/11/08 11:27:48;;;;;;;0.80;0.60;;;;;;;5.49;66.88;101016.91;5081849;28;20063;-71
2021/11/08 11:30:25;;;;;;;1.10;0.70;;;;;;;5.20;67.73;101025.69;5086057;28;20024;-70
2021/11/08 11:32:58;;;;;;;1.15;0.75;;;;;;;4.96;68.17;101028.53;5086510;28;20027;-70
2021/11/08 11:35:26;;;;;;;1.05;0.60;;;;;;;4.78;68.70;101041.78;5086627;28;20055;-70
2021/11/08 11:37:56;;;;;;;0.60;0.52;;;;;;;4.54;69.79;101037.75;5086502;28;20035;-70
2021/11/08 11:40:23;;;;;;;0.77;0.60;;;;;;;4.47;70.37;101044.44;5086915;28;20051;-71
2021/11/08 11:42:55;;;;;;;0.65;0.60;;;;;;;4.37;71.00;101052.72;5086711;28;20102;-71
2021/11/08 11:45:21;;;;;;;;;;;;;;;4.36;71.63;101054.41;5087138;28;20021;-71
2021/11/08 11:48:04;;;;;;;1.10;0.60;;;;;;;4.31;72.28;101068.88;5086061;28;20349;-71
2021/11/08 11:50:33;;;;;;;0.75;0.70;;;;;;;4.31;71.99;101074.00;5086525;28;20028;-71
2021/11/08 11:53:00;;;;;;;2.83;1.98;;;;;;;4.19;72.57;101079.66;5086590;28;20024;-70
2021/11/08 11:55:26;;;;;;;1.58;0.68;;;;;;;4.27;71.65;101079.88;5086551;28;20120;-71
2021/11/08 11:57:55;;;;;;;0.70;0.60;;;;;;;4.12;71.93;101096.59;5086388;28;20056;-70
2021/11/08 12:00:24;;;;;;;1.75;0.73;;;;;;;4.02;72.31;101082.63;5086467;28;20044;-71
2021/11/08 12:02:53;;;;;;;1.02;0.70;;;;;;;3.97;72.27;101079.03;5086141;28;20247;-71
2021/11/08 12:05:20;;;;;;;1.05;0.82;;;;;;;3.88;72.31;101078.75;5086412;28;20051;-71
2021/11/08 12:08:07;;;;;;;1.40;0.80;;;;;;;3.80;73.12;101073.41;5086057;28;20021;-70
2021/11/08 12:10:33;;;;;;;0.85;0.70;;;;;;;3.78;73.61;101083.63;5086199;28;20074;-70
2021/11/08 12:12:59;;;;;;;0.75;0.70;;;;;;;3.78;73.66;101087.88;5086176;28;20028;-70
2021/11/08 12:15:30;;;;;;;0.73;0.70;;;;;;;3.77;73.81;101084.44;5085969;28;20332;-70
2021/11/08 12:18:05;;;;;;;1.00;0.82;;;;;;;3.60;73.97;101060.81;5084444;28;20041;-69
2021/11/08 12:20:30;;;;;;;0.70;0.60;;;;;;;3.68;74.18;101079.91;5086214;28;20020;-71
2021/11/08 12:22:55;;;;;;;1.02;0.77;;;;;;;3.60;74.11;101068.50;5085984;28;20146;-70
2021/11/08 12:25:27;;;;;;;1.02;0.80;;;;;;;3.65;74.67;101091.75;5085876;28;20028;-71
2021/11/08 12:28:08;;;;;;;2.05;0.90;;;;;;;3.67;74.68;101093.56;5085678;28;20024;-72
2021/11/08 12:30:36;;;;;;;0.65;0.65;;;;;;;3.54;75.02;101081.16;5085818;28;20236;-70
2021/11/08 12:33:32;;;;;;;0.95;0.80;;;;;;;3.53;75.22;101087.97;5085298;28;20025;-70
2021/11/08 12:36:06;;;;;;;1.13;0.80;;;;;;;3.56;75.55;101089.78;5085624;28;20037;-70
2021/11/08 12:38:37;;;;;;;1.00;0.90;;;;;;;3.68;74.91;101108.16;5085752;28;20081;-70
2021/11/08 12:41:15;;;;;;;1.33;1.10;;;;;;;3.59;74.82;101097.59;5084989;28;20029;-70
2021/11/08 12:43:47;;;;;;;1.55;0.85;;;;;;;3.55;75.09;101095.72;5101423;28;20055;-70
2021/11/08 12:46:16;;;;;;;2.35;1.00;;;;;;;3.51;74.98;101096.47;5085277;28;20061;-70
2021/11/08 12:48:42;;;;;;;1.10;1.00;;;;;;;3.47;75.25;101098.94;5085571;28;20017;-70
2021/11/08 12:51:10;;;;;;;0.60;0.60;;;;;;;3.46;75.43;101110.03;5084278;28;20024;-71
2021/11/08 12:53:40;;;;;;;1.17;0.98;;;;;;;3.50;75.00;101099.88;5084057;28;20108;-71
2021/11/08 12:56:27;;;;;;;1.95;0.90;;;;;;;3.54;75.00;101101.69;5085154;28;20028;-70
2021/11/08 12:59:00;;;;;;;0.85;0.73;;;;;;;3.52;75.18;101105.91;5085328;28;20019;-70
2021/11/08 13:01:48;;;;;;;1.40;0.70;;;;;;;3.53;75.16;101105.09;5084949;28;20021;-70
2021/11/08 13:04:15;;;;;;;1.05;0.65;;;;;;;3.52;74.73;101114.50;5085227;28;20025;-70
2021/11/08 13:06:41;;;;;;;1.10;0.80;;;;;;;3.54;74.77;101114.53;5084889;28;20059;-70
2021/11/08 13:09:16;;;;;;;0.60;0.60;;;;;;;3.52;74.75;101118.75;5085357;28;20101;-70
2021/11/08 13:11:44;;;;;;;1.02;0.77;;;;;;;3.49;74.71;101119.53;5085104;28;20024;-71
2021/11/08 13:14:22;;;;;;;3.72;0.85;;;;;;;3.38;75.05;101096.09;5085146;28;20021;-71
2021/11/08 13:16:51;;;;;;;1.35;0.90;;;;;;;3.49;75.32;101113.50;5100345;28;20111;-70
2021/11/08 13:19:17;;;;;;;1.73;0.68;;;;;;;3.40;75.83;101107.28;5085064;28;20021;-71
2021/11/08 13:21:43;;;;;;;2.63;0.80;;;;;;;3.46;76.02;101112.59;5084926;28;20030;-70
2021/11/08 13:24:11;;;;;;;1.48;0.70;;;;;;;3.58;75.99;101130.09;5083205;28;20017;-70
2021/11/08 13:26:42;;;;;;;0.57;0.50;;;;;;;3.58;75.64;101124.94;5084586;28;20020;-71